Airfield :
LOGIN :

Register | Disclaimer

   EN    FR    IT 

 










Legend :    VFR   Marginal VFR   IFR   Intensive IFR   Very Intensive IFR
Visi :
Ceiling :
>= 8 km
>= 3000ft
5 to 8 km
1000 to 3000 ft
1500m to 5 km
500 to 1000 ft
800 to 1500m
200 to 500 ft
< 800m
< 200 ft
Symbols :   Thunderstorms  Fog  Heavy snow  Heavy precipitations  Wind > 20 kt
SIGMETs :     Misc.  Thunderstorms  Icing  Turbulence  Mountain Waves  Volcanic Ashes







- Airport Elevation : 1197 ft
- IATA code : SPM


ETAD - Spangdahlem Ab

CURRENT METAR :
  • 260856Z 25012KT 9999 SCT024 BKN029 BKN045 09/03 A3007 RMK AO2A CIG 026V045 SLPNO T00890031 $

EXPIRED METARs :
  • 260849Z 26011G18KT 9999 BKN026 BKN042 09/03 A3006 RMK AO2A CIG 026V044 SLPNO $
  • 260834Z 24010KT 9999 FEW022 SCT028 BKN044 BKN170 09/04 A3006 RMK AO2A SLPNO $
  • 260819Z 22014G20KT 9999 BKN025 BKN040 09/03 A3006 RMK AO2A SLPNO $
  • 260809Z 23013KT 9999 SCT025 BKN040 08/03 A3005 RMK SLPNO 52013 $
  • 260656Z AUTO 24013G18KT 9999 FEW021 OVC046 08/03 A3004 RMK AO2 SLP168 T00790034 $
  • 260626Z AUTO 24011KT 9999 FEW020 BKN027 BKN045 07/03 A3003 RMK AO2 CIG 027V046 BKN027 V SCT SLP165 $

TAF AMD TAF ETAD
Valid from the 26 at 06:00 until the 27 at 09:00 UTC


260625Z 2606/2709 24015G20KT 9999 SCT030 BKN040 610409 QNH3002INS
BECMG 2607/2608 24015G20KT 8000 -SHRA SCT025 BKN030 610409 QNH3005INS
BECMG 2613/2614 27012G18KT 9999 NSW SCT030 QNH3004INS
BECMG 2617/2618 27009KT 9999 SCT050 QNH2995INS TX16/2614Z TN02/2704Z
No reported NOTAMs for that airfield.



MET'MAP, your aeronautical weather chart ! - Copyright ORBIFLY December 2007 - Disclaimer

ORBIFLY MET'MAP TEAM :

Programming & Development : Alexandra Zaïnal
Concept & Development : Baudouin d'Aumeries
Co-Development & Prog : Marc-Olivier Méhu
Technical & hardware support : Manuel Goepfert

Contact : metmap@orbifly.com




SOURCES & CREDITS :

   NOAA